Picton Castle — E5WP — position and weather

sailwx.info

Track history (hours):
 
Tides and Currents Weather Stations Pressure Air Temp Water Temp Dewpoint Dewpoint Depression Visibility Wind Speed Wind Dir Waves Ship Positions

Picton Castle (Cook Islands)

Ship's website: http://www.picton-castle.com/

Last reported at 2015-Jul-02 09:33 UTC. Time now 2015-Jul-02 09:51 UTC.
Position N 41°05' W 071°48'.

Length 37 m; draft 4.4 m.

Type: Sailing vessel. MMSI: 518000019.

Date/timePositionNaut miles runAvg speedWind from/ knotsBaromVisibWave heightAir tempDewpointWater temp
2015-Jul-02 09:33N 41°05' W 071°48'3 2.5
2015-Jul-02 08:33N 41°03' W 071°47'1 0.7
2015-Jul-02 07:33N 41°02' W 071°46'0 0.2
2015-Jul-02 06:33N 41°02' W 071°47'0 0.5
2015-Jul-02 05:33N 41°02' W 071°47'1 1.4
2015-Jul-02 04:33N 41°01' W 071°48'3 3.2
2015-Jul-02 03:33N 40°58' W 071°50'4 3.9
2015-Jul-02 02:33N 40°54' W 071°52'4 3.9
2015-Jul-02 01:33N 40°51' W 071°54'5 5.2
2015-Jul-02 00:33N 40°47' W 071°59'10 4.7
2015-Jul-01 22:30N 40°39' W 072°06'4 4.6
2015-Jul-01 21:33N 40°36' W 072°10'170 4.1
2015-Jun-30 04:24N 38°49' W 075°02'62 6.2
2015-Jun-29 18:28N 39°48' W 075°25'7 7.5
2015-Jun-29 17:33N 39°51' W 075°17'6 6.2
2015-Jun-29 16:33N 39°53' W 075°09'4 3.9
2015-Jun-29 15:33N 39°57' W 075°08'0 0.3
2015-Jun-29 14:32N 39°57' W 075°08'0 0.0
2015-Jun-29 13:32N 39°57' W 075°08'0 0.1
2015-Jun-29 12:28N 39°57' W 075°08'0 0.0
2015-Jun-29 11:31N 39°57' W 075°08'0 0.0
2015-Jun-29 10:31N 39°57' W 075°08'0 0.0
2015-Jun-29 09:31N 39°57' W 075°08'0 0.0
2015-Jun-29 08:31N 39°57' W 075°08'0 0.0
2015-Jun-29 07:31N 39°57' W 075°08'0 0.0
2015-Jun-29 06:31N 39°57' W 075°08'0 0.0
2015-Jun-29 05:31N 39°57' W 075°08'0 0.0
2015-Jun-29 04:31N 39°57' W 075°08'0 0.0
2015-Jun-29 03:31N 39°57' W 075°08'0 0.0
2015-Jun-29 02:31N 39°57' W 075°08'0 0.0
2015-Jun-29 01:31N 39°57' W 075°08'0 0.0
2015-Jun-29 00:31N 39°57' W 075°08'0 0.0
2015-Jun-28 23:31N 39°57' W 075°08'0 0.0
2015-Jun-28 22:31N 39°57' W 075°08'0 0.0
2015-Jun-28 21:31N 39°57' W 075°08'0 0.0
2015-Jun-28 20:31N 39°57' W 075°08'0 0.0
2015-Jun-28 19:31N 39°57' W 075°08'0 0.0
2015-Jun-28 18:31N 39°57' W 075°08'0 0.0
2015-Jun-28 17:31N 39°57' W 075°08'0 0.0
2015-Jun-28 16:31N 39°57' W 075°08'0 0.0
2015-Jun-28 15:31N 39°57' W 075°08'0 0.0
2015-Jun-28 14:31N 39°57' W 075°08'0 0.0
2015-Jun-28 13:31N 39°57' W 075°08'0 0.0
2015-Jun-28 12:31N 39°57' W 075°08'0 0.0
2015-Jun-28 11:28N 39°57' W 075°08'0 0.0
2015-Jun-28 10:31N 39°57' W 075°08'0 0.0
2015-Jun-28 09:31N 39°57' W 075°08'0 0.0
2015-Jun-28 08:31N 39°57' W 075°08'0 0.0
2015-Jun-28 07:31N 39°57' W 075°08'0 0.0
2015-Jun-28 06:31N 39°57' W 075°08'0 0.0
2015-Jun-28 05:31N 39°57' W 075°08'0 0.0
2015-Jun-28 04:31N 39°57' W 075°08'0 0.0
2015-Jun-28 03:31N 39°57' W 075°08'0 0.0
2015-Jun-28 02:31N 39°57' W 075°08'0 0.0
2015-Jun-28 01:31N 39°57' W 075°08'0 0.0
2015-Jun-28 00:31N 39°57' W 075°08'0 0.0
2015-Jun-27 23:31N 39°57' W 075°08'0 0.0
2015-Jun-27 22:31N 39°57' W 075°08'0 0.0
2015-Jun-27 21:31N 39°57' W 075°08'0 0.0
2015-Jun-27 20:31N 39°57' W 075°08'0 0.0
2015-Jun-27 19:31N 39°57' W 075°08'0 0.0
2015-Jun-27 18:31N 39°57' W 075°08'0 0.0
2015-Jun-27 17:31N 39°57' W 075°08'0 0.0
2015-Jun-27 16:31N 39°57' W 075°08'0 0.0
2015-Jun-27 15:31N 39°57' W 075°08'0 0.0
2015-Jun-27 14:31N 39°57' W 075°08'0 0.0
2015-Jun-27 13:31N 39°57' W 075°08'0 0.0
2015-Jun-27 12:31N 39°57' W 075°08'0 0.0
2015-Jun-27 11:31N 39°57' W 075°08'0 0.0
2015-Jun-27 10:31N 39°57' W 075°08'0 0.0
2015-Jun-27 09:31N 39°57' W 075°08'0 0.0
2015-Jun-27 08:33N 39°57' W 075°08'0 0.0
2015-Jun-27 07:33N 39°57' W 075°08'0 0.0
2015-Jun-27 06:33N 39°57' W 075°08'0 0.0
2015-Jun-27 05:33N 39°57' W 075°08'0 0.0
2015-Jun-27 04:33N 39°57' W 075°08'0 0.0
2015-Jun-27 03:33N 39°57' W 075°08'0 0.0
2015-Jun-27 02:33N 39°57' W 075°08'0 0.0
2015-Jun-27 01:33N 39°57' W 075°08'0 0.0
2015-Jun-27 00:33N 39°57' W 075°08'0 0.0
2015-Jun-26 23:33N 39°57' W 075°08'0 0.0
2015-Jun-26 22:33N 39°57' W 075°08'0 0.0
2015-Jun-26 21:30N 39°57' W 075°08'0 0.0
2015-Jun-26 20:33N 39°57' W 075°08'0 0.0
2015-Jun-26 19:33N 39°57' W 075°08'0 0.0
2015-Jun-26 18:33N 39°57' W 075°08'0 0.0
2015-Jun-26 17:27N 39°57' W 075°08'0 0.0
2015-Jun-26 16:33N 39°57' W 075°08'0 0.0
2015-Jun-26 15:33N 39°57' W 075°08'0 0.0
2015-Jun-26 14:33N 39°57' W 075°08'0 0.5
2015-Jun-26 13:31N 39°57' W 075°08'0 0.0
2015-Jun-26 12:31N 39°57' W 075°08'0 0.0
2015-Jun-26 11:31N 39°57' W 075°08'0 0.0
2015-Jun-26 10:31N 39°57' W 075°08'0 0.0
2015-Jun-26 09:31N 39°57' W 075°08'0 0.0
2015-Jun-26 08:31N 39°57' W 075°08'0 0.0
2015-Jun-26 07:31N 39°57' W 075°08'0 0.0
2015-Jun-26 06:31N 39°57' W 075°08'0 0.0
2015-Jun-26 05:31N 39°57' W 075°08'0 0.0
2015-Jun-26 04:31N 39°57' W 075°08'0 0.0
2015-Jun-26 03:31N 39°57' W 075°08'0 0.0
2015-Jun-26 02:31N 39°57' W 075°08'0 0.0
2015-Jun-26 01:31N 39°57' W 075°08'0 0.0
2015-Jun-26 00:31N 39°57' W 075°08'0 0.0
2015-Jun-25 23:31N 39°57' W 075°08'0 0.0
2015-Jun-25 22:31N 39°57' W 075°08'0 0.0
2015-Jun-25 21:34N 39°57' W 075°08'0 0.0
2015-Jun-25 20:34N 39°57' W 075°08'0 0.0
2015-Jun-25 19:34N 39°57' W 075°08'1 0.8
2015-Jun-25 18:33N 39°57' W 075°08'3 2.7
2015-Jun-25 17:34N 39°55' W 075°08'0 0.3
2015-Jun-25 16:33N 39°54' W 075°08'3 2.7
2015-Jun-25 15:31N 39°57' W 075°08'0 0.0
2015-Jun-25 14:31N 39°57' W 075°08'0 0.1
2015-Jun-25 13:31N 39°57' W 075°08'0 0.0
2015-Jun-25 12:31N 39°57' W 075°08'0 0.0
2015-Jun-25 11:31N 39°57' W 075°08'0 0.0
2015-Jun-25 10:31N 39°57' W 075°08'0 0.0
2015-Jun-25 09:31N 39°57' W 075°08'0 0.1
2015-Jun-25 08:31N 39°57' W 075°08'0 0.0
2015-Jun-25 07:31N 39°57' W 075°08'0 0.0
2015-Jun-25 06:31N 39°57' W 075°08'0 0.0
2015-Jun-25 05:31N 39°57' W 075°08'0 0.0
2015-Jun-25 04:31N 39°57' W 075°08'0 0.0
2015-Jun-25 03:31N 39°57' W 075°08'0 0.0
2015-Jun-25 02:31N 39°57' W 075°08'0 0.0
2015-Jun-25 01:31N 39°57' W 075°08'0 0.0
2015-Jun-25 00:31N 39°57' W 075°08'0 0.0
2015-Jun-24 23:31N 39°57' W 075°08'0 0.0
2015-Jun-24 22:31N 39°57' W 075°08'0 0.0
2015-Jun-24 21:31N 39°57' W 075°08'2 1.7
2015-Jun-24 20:34N 39°56' W 075°08'  
Track history (hours):
 
Tides and Currents Weather Stations Pressure Air Temp Water Temp Dewpoint Dewpoint Depression Visibility Wind Speed Wind Dir Waves Ship Positions

Picton Castle (Cook Islands)

Ship's website: http://www.picton-castle.com/

Last reported at 2015-Jul-02 09:33 UTC. Time now 2015-Jul-02 09:51 UTC.
Position N 41°05' W 071°48'.

Length 37 m; draft 4.4 m.

Type: Sailing vessel. MMSI: 518000019.

Date/timePositionNaut miles runAvg speedWind from/ knotsBaromVisibWave heightAir tempDewpointWater temp
2015-Jul-02 09:33N 41°05' W 071°48'3 2.5
2015-Jul-02 08:33N 41°03' W 071°47'1 0.7
2015-Jul-02 07:33N 41°02' W 071°46'0 0.2
2015-Jul-02 06:33N 41°02' W 071°47'0 0.5
2015-Jul-02 05:33N 41°02' W 071°47'1 1.4
2015-Jul-02 04:33N 41°01' W 071°48'3 3.2
2015-Jul-02 03:33N 40°58' W 071°50'4 3.9
2015-Jul-02 02:33N 40°54' W 071°52'4 3.9
2015-Jul-02 01:33N 40°51' W 071°54'5 5.2
2015-Jul-02 00:33N 40°47' W 071°59'10 4.7
2015-Jul-01 22:30N 40°39' W 072°06'4 4.6
2015-Jul-01 21:33N 40°36' W 072°10'170 4.1
2015-Jun-30 04:24N 38°49' W 075°02'62 6.2
2015-Jun-29 18:28N 39°48' W 075°25'7 7.5
2015-Jun-29 17:33N 39°51' W 075°17'6 6.2
2015-Jun-29 16:33N 39°53' W 075°09'4 3.9
2015-Jun-29 15:33N 39°57' W 075°08'0 0.3
2015-Jun-29 14:32N 39°57' W 075°08'0 0.0
2015-Jun-29 13:32N 39°57' W 075°08'0 0.1
2015-Jun-29 12:28N 39°57' W 075°08'0 0.0
2015-Jun-29 11:31N 39°57' W 075°08'0 0.0
2015-Jun-29 10:31N 39°57' W 075°08'0 0.0
2015-Jun-29 09:31N 39°57' W 075°08'0 0.0
2015-Jun-29 08:31N 39°57' W 075°08'0 0.0
2015-Jun-29 07:31N 39°57' W 075°08'0 0.0
2015-Jun-29 06:31N 39°57' W 075°08'0 0.0
2015-Jun-29 05:31N 39°57' W 075°08'0 0.0
2015-Jun-29 04:31N 39°57' W 075°08'0 0.0
2015-Jun-29 03:31N 39°57' W 075°08'0 0.0
2015-Jun-29 02:31N 39°57' W 075°08'0 0.0
2015-Jun-29 01:31N 39°57' W 075°08'0 0.0
2015-Jun-29 00:31N 39°57' W 075°08'0 0.0
2015-Jun-28 23:31N 39°57' W 075°08'0 0.0
2015-Jun-28 22:31N 39°57' W 075°08'0 0.0
2015-Jun-28 21:31N 39°57' W 075°08'0 0.0
2015-Jun-28 20:31N 39°57' W 075°08'0 0.0
2015-Jun-28 19:31N 39°57' W 075°08'0 0.0
2015-Jun-28 18:31N 39°57' W 075°08'0 0.0
2015-Jun-28 17:31N 39°57' W 075°08'0 0.0
2015-Jun-28 16:31N 39°57' W 075°08'0 0.0
2015-Jun-28 15:31N 39°57' W 075°08'0 0.0
2015-Jun-28 14:31N 39°57' W 075°08'0 0.0
2015-Jun-28 13:31N 39°57' W 075°08'0 0.0
2015-Jun-28 12:31N 39°57' W 075°08'0 0.0
2015-Jun-28 11:28N 39°57' W 075°08'0 0.0
2015-Jun-28 10:31N 39°57' W 075°08'0 0.0
2015-Jun-28 09:31N 39°57' W 075°08'0 0.0
2015-Jun-28 08:31N 39°57' W 075°08'0 0.0
2015-Jun-28 07:31N 39°57' W 075°08'0 0.0
2015-Jun-28 06:31N 39°57' W 075°08'0 0.0
2015-Jun-28 05:31N 39°57' W 075°08'0 0.0
2015-Jun-28 04:31N 39°57' W 075°08'0 0.0
2015-Jun-28 03:31N 39°57' W 075°08'0 0.0
2015-Jun-28 02:31N 39°57' W 075°08'0 0.0
2015-Jun-28 01:31N 39°57' W 075°08'0 0.0
2015-Jun-28 00:31N 39°57' W 075°08'0 0.0
2015-Jun-27 23:31N 39°57' W 075°08'0 0.0
2015-Jun-27 22:31N 39°57' W 075°08'0 0.0
2015-Jun-27 21:31N 39°57' W 075°08'0 0.0
2015-Jun-27 20:31N 39°57' W 075°08'0 0.0
2015-Jun-27 19:31N 39°57' W 075°08'0 0.0
2015-Jun-27 18:31N 39°57' W 075°08'0 0.0
2015-Jun-27 17:31N 39°57' W 075°08'0 0.0
2015-Jun-27 16:31N 39°57' W 075°08'0 0.0
2015-Jun-27 15:31N 39°57' W 075°08'0 0.0
2015-Jun-27 14:31N 39°57' W 075°08'0 0.0
2015-Jun-27 13:31N 39°57' W 075°08'0 0.0
2015-Jun-27 12:31N 39°57' W 075°08'0 0.0
2015-Jun-27 11:31N 39°57' W 075°08'0 0.0
2015-Jun-27 10:31N 39°57' W 075°08'0 0.0
2015-Jun-27 09:31N 39°57' W 075°08'0 0.0
2015-Jun-27 08:33N 39°57' W 075°08'0 0.0
2015-Jun-27 07:33N 39°57' W 075°08'0 0.0
2015-Jun-27 06:33N 39°57' W 075°08'0 0.0
2015-Jun-27 05:33N 39°57' W 075°08'0 0.0
2015-Jun-27 04:33N 39°57' W 075°08'0 0.0
2015-Jun-27 03:33N 39°57' W 075°08'0 0.0
2015-Jun-27 02:33N 39°57' W 075°08'0 0.0
2015-Jun-27 01:33N 39°57' W 075°08'0 0.0
2015-Jun-27 00:33N 39°57' W 075°08'0 0.0
2015-Jun-26 23:33N 39°57' W 075°08'0 0.0
2015-Jun-26 22:33N 39°57' W 075°08'0 0.0
2015-Jun-26 21:30N 39°57' W 075°08'0 0.0
2015-Jun-26 20:33N 39°57' W 075°08'0 0.0
2015-Jun-26 19:33N 39°57' W 075°08'0 0.0
2015-Jun-26 18:33N 39°57' W 075°08'0 0.0
2015-Jun-26 17:27N 39°57' W 075°08'0 0.0
2015-Jun-26 16:33N 39°57' W 075°08'0 0.0
2015-Jun-26 15:33N 39°57' W 075°08'0 0.0
2015-Jun-26 14:33N 39°57' W 075°08'0 0.5
2015-Jun-26 13:31N 39°57' W 075°08'0 0.0
2015-Jun-26 12:31N 39°57' W 075°08'0 0.0
2015-Jun-26 11:31N 39°57' W 075°08'0 0.0
2015-Jun-26 10:31N 39°57' W 075°08'0 0.0
2015-Jun-26 09:31N 39°57' W 075°08'0 0.0
2015-Jun-26 08:31N 39°57' W 075°08'0 0.0
2015-Jun-26 07:31N 39°57' W 075°08'0 0.0
2015-Jun-26 06:31N 39°57' W 075°08'0 0.0
2015-Jun-26 05:31N 39°57' W 075°08'0 0.0
2015-Jun-26 04:31N 39°57' W 075°08'0 0.0
2015-Jun-26 03:31N 39°57' W 075°08'0 0.0
2015-Jun-26 02:31N 39°57' W 075°08'0 0.0
2015-Jun-26 01:31N 39°57' W 075°08'0 0.0
2015-Jun-26 00:31N 39°57' W 075°08'0 0.0
2015-Jun-25 23:31N 39°57' W 075°08'0 0.0
2015-Jun-25 22:31N 39°57' W 075°08'0 0.0
2015-Jun-25 21:34N 39°57' W 075°08'0 0.0
2015-Jun-25 20:34N 39°57' W 075°08'0 0.0
2015-Jun-25 19:34N 39°57' W 075°08'1 0.8
2015-Jun-25 18:33N 39°57' W 075°08'3 2.7
2015-Jun-25 17:34N 39°55' W 075°08'0 0.3
2015-Jun-25 16:33N 39°54' W 075°08'3 2.7
2015-Jun-25 15:31N 39°57' W 075°08'0 0.0
2015-Jun-25 14:31N 39°57' W 075°08'0 0.1
2015-Jun-25 13:31N 39°57' W 075°08'0 0.0
2015-Jun-25 12:31N 39°57' W 075°08'0 0.0
2015-Jun-25 11:31N 39°57' W 075°08'0 0.0
2015-Jun-25 10:31N 39°57' W 075°08'0 0.0
2015-Jun-25 09:31N 39°57' W 075°08'0 0.1
2015-Jun-25 08:31N 39°57' W 075°08'0 0.0
2015-Jun-25 07:31N 39°57' W 075°08'0 0.0
2015-Jun-25 06:31N 39°57' W 075°08'0 0.0
2015-Jun-25 05:31N 39°57' W 075°08'0 0.0
2015-Jun-25 04:31N 39°57' W 075°08'0 0.0
2015-Jun-25 03:31N 39°57' W 075°08'0 0.0
2015-Jun-25 02:31N 39°57' W 075°08'0 0.0
2015-Jun-25 01:31N 39°57' W 075°08'0 0.0
2015-Jun-25 00:31N 39°57' W 075°08'0 0.0
2015-Jun-24 23:31N 39°57' W 075°08'0 0.0
2015-Jun-24 22:31N 39°57' W 075°08'0 0.0
2015-Jun-24 21:31N 39°57' W 075°08'2 1.7
2015-Jun-24 20:34N 39°56' W 075°08'  

Dump ship's entire track history